createdAt,value
2022-09-26T00:00:50.604Z,14.70
2022-09-26T00:03:16.958Z,12.35
2022-09-26T00:05:44.627Z,12.55
2022-09-26T00:08:10.978Z,13.32
2022-09-26T00:10:37.467Z,12.90
2022-09-26T00:13:04.203Z,16.38
2022-09-26T00:15:30.859Z,11.35
2022-09-26T00:17:57.197Z,13.57
2022-09-26T00:20:23.497Z,15.23
2022-09-26T00:22:49.810Z,13.18
2022-09-26T00:25:16.459Z,14.25
2022-09-26T00:27:43.020Z,17.00
2022-09-26T00:30:09.929Z,13.02
2022-09-26T00:32:36.267Z,16.80
2022-09-26T00:35:02.616Z,15.13
2022-09-26T00:37:29.292Z,18.20
2022-09-26T00:39:55.690Z,15.30
2022-09-26T00:42:22.918Z,13.20
2022-09-26T00:44:53.028Z,12.35
2022-09-26T00:47:26.230Z,16.95
2022-09-26T00:49:58.316Z,12.57
2022-09-26T00:52:29.643Z,18.75
2022-09-26T00:55:00.877Z,16.10
2022-09-26T00:57:35.423Z,16.40
2022-09-26T01:00:07.366Z,15.93
2022-09-26T01:02:34.173Z,16.55
2022-09-26T01:05:02.989Z,15.93
2022-09-26T01:07:30.240Z,15.75
2022-09-26T01:09:57.700Z,19.50
2022-09-26T01:12:24.550Z,18.15
2022-09-26T01:14:53.792Z,17.52
2022-09-26T01:17:23.223Z,16.90
2022-09-26T01:20:03.053Z,16.60
2022-09-26T01:22:56.506Z,15.65
2022-09-26T01:26:09.401Z,15.88
2022-09-26T01:28:56.729Z,21.33
2022-09-26T01:31:49.212Z,19.60
2022-09-26T01:34:29.179Z,20.73
2022-09-26T01:37:14.308Z,15.63
2022-09-26T01:40:22.160Z,15.40
2022-09-26T01:43:05.235Z,20.63
2022-09-26T01:45:46.318Z,23.50
2022-09-26T01:48:14.051Z,20.30
2022-09-26T01:50:53.383Z,21.33
2022-09-26T01:53:26.755Z,19.88
2022-09-26T01:55:59.278Z,19.27
2022-09-26T01:58:29.031Z,22.52
2022-09-26T02:01:00.049Z,12.73
2022-09-26T02:03:36.137Z,17.77
2022-09-26T02:06:13.268Z,18.00
2022-09-26T02:09:02.331Z,15.57
2022-09-26T02:11:28.617Z,18.42
2022-09-26T02:14:07.281Z,17.27
2022-09-26T02:17:00.277Z,23.13
2022-09-26T02:19:33.391Z,14.10
2022-09-26T02:22:01.546Z,17.85
2022-09-26T02:24:28.989Z,15.63
2022-09-26T02:26:55.606Z,20.52
2022-09-26T02:29:23.373Z,19.85
2022-09-26T02:32:13.210Z,17.42
2022-09-26T02:34:45.427Z,17.38
2022-09-26T02:37:13.516Z,17.73
2022-09-26T02:39:42.059Z,18.38
2022-09-26T02:42:33.946Z,21.05
2022-09-26T02:45:12.521Z,21.27
2022-09-26T02:48:05.393Z,22.83
2022-09-26T02:50:57.661Z,24.83
2022-09-26T02:53:40.539Z,22.88
2022-09-26T02:56:09.924Z,21.85
2022-09-26T02:59:01.515Z,21.17
2022-09-26T03:01:37.995Z,23.40
2022-09-26T03:04:11.966Z,23.77
2022-09-26T03:06:45.012Z,26.20
2022-09-26T03:09:14.997Z,22.60
2022-09-26T03:11:43.711Z,24.15
2022-09-26T03:14:12.387Z,20.23
2022-09-26T03:16:42.479Z,20.40
2022-09-26T03:19:30.551Z,19.50
2022-09-26T03:21:57.708Z,18.95
2022-09-26T03:24:24.775Z,23.08
2022-09-26T03:26:51.711Z,23.13
2022-09-26T03:29:18.681Z,21.92
2022-09-26T03:31:45.036Z,19.08
2022-09-26T03:34:11.443Z,22.63
2022-09-26T03:36:38.234Z,22.02
2022-09-26T03:39:04.579Z,22.77
2022-09-26T03:41:30.898Z,24.70
2022-09-26T03:43:57.606Z,22.48
2022-09-26T03:46:23.969Z,23.45
2022-09-26T03:48:50.465Z,26.88
2022-09-26T03:51:17.214Z,23.40
2022-09-26T03:53:45.518Z,23.65
2022-09-26T03:56:14.872Z,22.60
2022-09-26T03:58:42.419Z,20.80
2022-09-26T04:01:16.696Z,21.90
2022-09-26T04:03:49.975Z,22.15
2022-09-26T04:06:17.894Z,22.65
2022-09-26T04:08:44.553Z,25.17
2022-09-26T04:11:13.203Z,25.60
2022-09-26T04:13:51.431Z,24.55
2022-09-26T04:16:19.423Z,21.95
2022-09-26T04:18:46.032Z,24.55
2022-09-26T04:21:13.538Z,22.30
2022-09-26T04:23:41.862Z,19.38
2022-09-26T04:26:09.787Z,18.80
2022-09-26T04:28:36.720Z,20.63
2022-09-26T04:31:05.016Z,21.00
2022-09-26T04:33:31.475Z,27.15
2022-09-26T04:36:02.690Z,21.15
2022-09-26T04:38:29.115Z,20.52
2022-09-26T04:40:55.685Z,21.58
2022-09-26T04:43:22.211Z,23.13
2022-09-26T04:45:48.677Z,23.52
2022-09-26T04:48:15.017Z,20.42
2022-09-26T04:50:41.344Z,23.60
2022-09-26T04:53:07.906Z,22.80
2022-09-26T04:55:34.279Z,22.85
2022-09-26T04:58:00.687Z,22.55
2022-09-26T05:00:27.105Z,24.95
2022-09-26T05:02:53.548Z,21.25
2022-09-26T05:05:19.864Z,23.15
2022-09-26T05:07:46.184Z,21.42
2022-09-26T05:10:12.700Z,23.65
2022-09-26T05:12:39.272Z,22.38
2022-09-26T05:15:09.967Z,21.67
2022-09-26T05:17:37.867Z,23.13
2022-09-26T05:20:06.846Z,21.80
2022-09-26T05:22:33.179Z,24.15
2022-09-26T05:24:59.878Z,21.83
2022-09-26T05:27:26.360Z,23.77
2022-09-26T05:29:52.895Z,21.45
2022-09-26T05:32:19.327Z,19.95
2022-09-26T05:34:45.785Z,25.70
2022-09-26T05:37:12.300Z,26.30
2022-09-26T05:39:42.282Z,24.58
2022-09-26T05:42:09.116Z,21.73
2022-09-26T05:44:35.471Z,23.40
2022-09-26T05:47:01.878Z,21.65
2022-09-26T05:49:28.243Z,21.92
2022-09-26T05:51:54.688Z,25.02
2022-09-26T05:54:21.018Z,24.38
2022-09-26T05:56:49.863Z,21.42
2022-09-26T05:59:16.363Z,19.48
2022-09-26T06:01:42.989Z,19.42
2022-09-26T06:04:09.747Z,19.13
2022-09-26T06:06:36.365Z,20.60
2022-09-26T06:09:03.207Z,16.98
2022-09-26T06:11:29.673Z,16.80
2022-09-26T06:13:57.345Z,17.45
2022-09-26T06:16:24.007Z,15.30
2022-09-26T06:18:52.127Z,17.08
2022-09-26T06:21:19.837Z,12.50
2022-09-26T06:23:46.419Z,14.45
2022-09-26T06:26:22.205Z,14.80
2022-09-26T06:28:48.996Z,16.17
2022-09-26T06:31:17.930Z,15.13
2022-09-26T06:33:44.339Z,13.55
2022-09-26T06:36:12.059Z,16.05
2022-09-26T06:38:38.722Z,14.18
2022-09-26T06:41:05.723Z,13.93
2022-09-26T06:43:32.082Z,14.32
2022-09-26T06:45:58.731Z,13.35
2022-09-26T06:48:25.104Z,12.25
2022-09-26T06:50:52.991Z,12.48
2022-09-26T06:53:19.761Z,13.82
2022-09-26T06:55:46.492Z,13.40
2022-09-26T06:58:13.524Z,13.45
2022-09-26T07:00:40.269Z,12.18
2022-09-26T07:03:06.942Z,13.05
2022-09-26T07:05:33.280Z,12.65
2022-09-26T07:07:59.747Z,9.52
2022-09-26T07:10:26.337Z,14.13
2022-09-26T07:12:52.650Z,12.38
2022-09-26T07:15:20.229Z,13.32
2022-09-26T07:17:48.601Z,9.57
2022-09-26T07:20:18.448Z,10.27
2022-09-26T07:22:45.915Z,11.13
2022-09-26T07:25:13.704Z,8.82
2022-09-26T07:27:41.280Z,12.38
2022-09-26T07:30:09.166Z,10.88
2022-09-26T07:32:35.755Z,12.50
2022-09-26T07:35:03.662Z,13.43
2022-09-26T07:37:31.205Z,11.98
2022-09-26T07:40:01.420Z,9.13
2022-09-26T07:42:28.271Z,11.98
2022-09-26T07:45:24.864Z,14.05
2022-09-26T07:47:41.259Z,9.13
2022-09-26T07:50:07.886Z,9.20
2022-09-26T07:52:34.620Z,9.15
2022-09-26T07:55:01.199Z,8.10
2022-09-26T07:57:27.565Z,10.88
2022-09-26T07:59:57.011Z,8.07
2022-09-26T08:02:25.879Z,9.88
2022-09-26T08:04:52.479Z,10.95
2022-09-26T08:07:18.836Z,7.72
2022-09-26T08:09:45.350Z,7.75
2022-09-26T08:12:11.839Z,8.27
2022-09-26T08:14:38.167Z,7.85
2022-09-26T08:17:04.479Z,8.32
2022-09-26T08:19:30.893Z,5.97
2022-09-26T08:21:57.290Z,9.35
2022-09-26T08:24:23.841Z,4.00
2022-09-26T08:26:50.333Z,6.57
2022-09-26T08:29:16.750Z,6.60
2022-09-26T08:31:43.344Z,5.55
2022-09-26T08:34:09.935Z,6.28
2022-09-26T08:36:36.273Z,4.30
2022-09-26T08:39:03.946Z,4.72
2022-09-26T08:41:47.116Z,5.35
2022-09-26T08:44:16.385Z,8.75
2022-09-26T08:46:57.043Z,3.75
2022-09-26T08:49:38.522Z,7.13
2022-09-26T08:52:27.016Z,4.07
2022-09-26T08:54:55.621Z,4.50
2022-09-26T08:58:02.985Z,4.18
2022-09-26T09:00:33.440Z,5.28
2022-09-26T09:03:08.195Z,4.25
2022-09-26T09:05:42.070Z,3.97
2022-09-26T09:08:19.735Z,4.47
2022-09-26T09:10:52.815Z,5.88
2022-09-26T09:13:31.280Z,4.45
2022-09-26T09:16:15.957Z,3.83
2022-09-26T09:19:09.777Z,4.50
2022-09-26T09:21:48.247Z,3.35
2022-09-26T09:24:23.228Z,6.68
2022-09-26T09:30:17.951Z,4.50
2022-09-26T09:32:55.009Z,3.67
2022-09-26T09:35:42.492Z,4.00
2022-09-26T09:38:18.192Z,3.92
2022-09-26T09:41:00.693Z,4.55
2022-09-26T09:43:48.405Z,3.70
2022-09-26T09:46:38.450Z,4.40
2022-09-26T09:49:07.760Z,4.97
2022-09-26T09:51:41.384Z,9.10
2022-09-26T09:54:39.863Z,3.67
2022-09-26T09:57:34.621Z,4.10
2022-09-26T10:00:13.007Z,3.17
2022-09-26T10:02:52.515Z,7.32
2022-09-26T10:05:48.173Z,3.22
2022-09-26T10:08:18.779Z,4.93
2022-09-26T10:13:30.578Z,2.88
2022-09-26T10:16:07.844Z,3.97
2022-09-26T10:19:12.487Z,5.47
2022-09-26T10:21:46.378Z,3.25
2022-09-26T10:24:31.222Z,2.38
2022-09-26T10:26:57.683Z,3.30
2022-09-26T10:29:31.624Z,5.07
2022-09-26T10:31:58.728Z,4.10
2022-09-26T10:34:30.407Z,3.30
2022-09-26T10:36:57.565Z,3.60
2022-09-26T10:39:30.621Z,3.80
2022-09-26T10:41:58.817Z,2.25
2022-09-26T10:44:36.079Z,3.53
2022-09-26T10:47:05.632Z,5.25
2022-09-26T10:49:39.544Z,4.95
2022-09-26T10:52:08.790Z,7.00
2022-09-26T10:54:43.973Z,4.70
2022-09-26T10:57:19.693Z,1.88
2022-09-26T10:59:47.542Z,1.45
2022-09-26T11:02:19.669Z,2.30
2022-09-26T11:04:46.716Z,1.55
2022-09-26T11:07:25.323Z,5.22
2022-09-26T11:09:53.464Z,4.43
2022-09-26T11:12:23.927Z,3.42
2022-09-26T11:14:54.051Z,1.95
2022-09-26T11:17:20.469Z,6.65
2022-09-26T11:20:01.359Z,2.88
2022-09-26T11:22:38.129Z,1.48
2022-09-26T11:25:22.843Z,3.17
2022-09-26T11:27:58.295Z,4.03
2022-09-26T11:30:27.671Z,3.38
2022-09-26T11:32:57.783Z,1.55
2022-09-26T11:35:33.624Z,1.55
2022-09-26T11:38:11.215Z,1.45
2022-09-26T11:40:54.533Z,3.33
2022-09-26T11:43:53.424Z,1.42
2022-09-26T11:46:44.825Z,2.28
2022-09-26T11:49:36.642Z,3.85
2022-09-26T11:52:08.812Z,1.90
2022-09-26T11:55:22.730Z,1.15
2022-09-26T11:58:30.689Z,2.20
2022-09-26T12:01:25.403Z,3.08
2022-09-26T12:04:26.514Z,2.28
2022-09-26T12:07:18.112Z,0.50
2022-09-26T12:10:11.922Z,2.88
2022-09-26T12:12:54.433Z,3.17
2022-09-26T12:15:26.762Z,1.23
2022-09-26T12:18:16.414Z,2.08
2022-09-26T12:20:45.689Z,3.15
2022-09-26T12:23:27.332Z,1.80
2022-09-26T12:26:25.600Z,1.27
2022-09-26T12:29:29.870Z,5.00
2022-09-26T12:32:45.938Z,4.18
2022-09-26T12:35:50.389Z,2.70
2022-09-26T12:39:01.848Z,6.38
2022-09-26T12:42:06.816Z,4.60
2022-09-26T12:44:59.407Z,3.97
2022-09-26T12:47:44.584Z,3.70
2022-09-26T12:50:35.993Z,3.45
2022-09-26T12:53:20.889Z,1.08
2022-09-26T12:55:53.229Z,1.55
2022-09-26T12:58:28.418Z,1.50
2022-09-26T13:01:13.552Z,0.93
2022-09-26T13:04:01.339Z,0.50
2022-09-26T13:07:02.408Z,3.05
2022-09-26T13:09:45.216Z,1.15
2022-09-26T13:12:24.030Z,6.45
2022-09-26T13:15:18.657Z,7.80
2022-09-26T13:17:51.366Z,2.78
2022-09-26T13:20:28.975Z,6.85
2022-09-26T13:23:27.818Z,2.17
2022-09-26T13:26:01.918Z,4.95
2022-09-26T13:29:12.766Z,20.25
2022-09-26T13:31:43.736Z,8.10
2022-09-26T13:34:23.659Z,6.72
2022-09-26T13:36:51.131Z,4.03
2022-09-26T13:39:40.566Z,2.47
2022-09-26T13:42:26.455Z,2.20
2022-09-26T13:45:29.002Z,1.80
2022-09-26T13:48:10.183Z,11.65
2022-09-26T13:51:01.910Z,2.55
2022-09-26T13:53:33.400Z,1.77
2022-09-26T13:56:28.719Z,1.52
2022-09-26T13:59:22.266Z,2.42
2022-09-26T14:02:16.362Z,1.92
2022-09-26T14:04:44.081Z,2.75
2022-09-26T14:07:10.344Z,2.05
2022-09-26T14:09:52.359Z,2.05
2022-09-26T14:12:30.774Z,1.70
2022-09-26T14:15:16.113Z,2.30
2022-09-26T14:17:42.568Z,1.08
2022-09-26T14:20:23.039Z,2.38
2022-09-26T14:22:51.720Z,1.10
2022-09-26T14:25:45.801Z,1.75
2022-09-26T14:28:32.098Z,1.05
2022-09-26T14:31:19.732Z,2.60
2022-09-26T14:33:46.392Z,1.52
2022-09-26T14:36:29.106Z,3.22
2022-09-26T14:38:55.698Z,2.10
2022-09-26T14:41:27.372Z,1.50
2022-09-26T14:44:01.590Z,2.58
2022-09-26T14:46:29.792Z,3.08
2022-09-26T14:49:02.876Z,1.05
2022-09-26T14:51:33.641Z,1.05
2022-09-26T14:54:07.757Z,0.80
2022-09-26T14:56:44.003Z,2.35
2022-09-26T14:59:16.045Z,1.25
2022-09-26T15:01:44.311Z,1.92
2022-09-26T15:04:29.846Z,1.98
2022-09-26T15:07:05.661Z,0.88
2022-09-26T15:09:39.992Z,1.35
2022-09-26T15:12:15.950Z,3.55
2022-09-26T15:14:52.579Z,1.27
2022-09-26T15:17:27.955Z,1.52
2022-09-26T15:19:57.339Z,2.60
2022-09-26T15:22:27.222Z,2.47
2022-09-26T15:24:55.286Z,2.67
2022-09-26T15:27:28.238Z,1.52
2022-09-26T15:30:01.795Z,1.10
2022-09-26T15:32:31.203Z,1.73
2022-09-26T15:34:59.716Z,2.88
2022-09-26T15:37:29.835Z,1.48
2022-09-26T15:39:57.016Z,1.25
2022-09-26T15:42:30.225Z,1.70
2022-09-26T15:44:59.234Z,2.10
2022-09-26T15:47:31.474Z,1.75
2022-09-26T15:50:09.998Z,0.90
2022-09-26T15:52:48.495Z,1.42
2022-09-26T15:55:21.571Z,1.83
2022-09-26T15:57:49.827Z,1.85
2022-09-26T16:00:17.576Z,2.95
2022-09-26T16:02:44.107Z,1.58
2022-09-26T16:05:13.154Z,1.25
2022-09-26T16:07:40.700Z,1.70
2022-09-26T16:10:31.683Z,1.35
2022-09-26T16:12:58.129Z,0.80
2022-09-26T16:15:30.248Z,1.15
2022-09-26T16:17:58.446Z,4.03
2022-09-26T16:20:30.408Z,1.42
2022-09-26T16:23:03.335Z,1.73
2022-09-26T16:25:42.028Z,4.22
2022-09-26T16:28:08.347Z,1.70
2022-09-26T16:30:34.642Z,1.17
2022-09-26T16:33:06.976Z,2.05
2022-09-26T16:35:35.888Z,1.63
2022-09-26T16:38:05.652Z,4.45
2022-09-26T16:40:34.738Z,3.30
2022-09-26T16:43:15.417Z,4.85
2022-09-26T16:46:15.274Z,1.30
2022-09-26T16:48:50.555Z,2.37
2022-09-26T16:51:21.298Z,0.80
2022-09-26T16:56:18.396Z,1.92
2022-09-26T16:58:52.933Z,1.58
2022-09-26T17:01:20.058Z,1.42
2022-09-26T17:03:46.541Z,1.23
2022-09-26T17:06:12.985Z,1.75
2022-09-26T17:08:40.067Z,2.40
2022-09-26T17:11:14.016Z,2.78
2022-09-26T17:13:40.591Z,2.15
2022-09-26T17:16:07.350Z,1.73
2022-09-26T17:18:34.075Z,2.42
2022-09-26T17:21:01.372Z,3.70
2022-09-26T17:23:45.082Z,0.80
2022-09-26T17:26:18.872Z,1.90
2022-09-26T17:28:45.753Z,1.88
2022-09-26T17:31:17.975Z,1.80
2022-09-26T17:33:45.353Z,3.40
2022-09-26T17:36:20.610Z,2.83
2022-09-26T17:38:47.141Z,1.85
2022-09-26T17:41:13.847Z,1.95
2022-09-26T17:43:41.036Z,2.50
2022-09-26T17:46:15.173Z,4.45
2022-09-26T17:48:43.381Z,3.08
2022-09-26T17:51:10.467Z,4.00
2022-09-26T17:53:39.303Z,2.42
2022-09-26T17:56:06.309Z,2.58
2022-09-26T17:58:33.789Z,3.30
2022-09-26T18:01:01.954Z,2.35
2022-09-26T18:03:32.425Z,2.92
2022-09-26T18:05:58.895Z,3.47
2022-09-26T18:08:35.388Z,5.03
2022-09-26T18:11:06.874Z,7.90
2022-09-26T18:13:38.121Z,6.75
2022-09-26T18:16:05.192Z,8.98
2022-09-26T18:18:32.872Z,5.22
2022-09-26T18:21:00.892Z,3.15
2022-09-26T18:23:35.700Z,2.88
2022-09-26T18:26:02.386Z,5.88
2022-09-26T18:28:30.241Z,3.35
2022-09-26T18:30:58.608Z,8.48
2022-09-26T18:33:25.357Z,7.97
2022-09-26T18:35:55.430Z,7.28
2022-09-26T18:38:22.045Z,6.50
2022-09-26T18:40:52.986Z,5.30
2022-09-26T18:43:22.953Z,5.57
2022-09-26T18:45:50.012Z,5.53
2022-09-26T18:48:26.005Z,3.15
2022-09-26T18:50:53.961Z,3.72
2022-09-26T18:53:22.806Z,8.93
2022-09-26T18:55:49.642Z,6.18
2022-09-26T18:58:18.432Z,4.35
2022-09-26T19:00:45.130Z,5.88
2022-09-26T19:03:11.584Z,5.18
2022-09-26T19:05:37.939Z,4.30
2022-09-26T19:08:04.751Z,7.40
2022-09-26T19:10:31.146Z,7.95
2022-09-26T19:12:57.793Z,5.72
2022-09-26T19:15:24.466Z,7.40
2022-09-26T19:17:50.966Z,7.57
2022-09-26T19:20:17.298Z,7.22
2022-09-26T19:22:43.704Z,7.20
2022-09-26T19:25:10.416Z,7.50
2022-09-26T19:27:50.007Z,3.92
2022-09-26T19:30:21.357Z,7.20
2022-09-26T19:32:51.331Z,9.43
2022-09-26T19:35:24.354Z,4.07
2022-09-26T19:37:51.222Z,5.13
2022-09-26T19:40:19.683Z,5.03
2022-09-26T19:42:46.229Z,5.70
2022-09-26T19:45:14.302Z,6.15
2022-09-26T19:47:46.825Z,9.77
2022-09-26T19:50:19.234Z,8.27
2022-09-26T19:52:46.226Z,8.73
2022-09-26T19:55:24.119Z,7.20
2022-09-26T19:57:53.235Z,5.95
2022-09-26T20:00:20.268Z,6.55
2022-09-26T20:02:50.515Z,8.05
2022-09-26T20:05:25.779Z,7.80
2022-09-26T20:07:52.918Z,5.97
2022-09-26T20:10:21.878Z,5.43
2022-09-26T20:12:48.392Z,8.18
2022-09-26T20:15:16.368Z,7.93
2022-09-26T20:17:46.982Z,6.95
2022-09-26T20:20:18.776Z,6.18
2022-09-26T20:22:46.558Z,6.60
2022-09-26T20:25:26.829Z,6.05
2022-09-26T20:30:20.372Z,5.47
2022-09-26T20:32:47.131Z,7.22
2022-09-26T20:35:17.123Z,5.15
2022-09-26T20:37:44.072Z,4.47
2022-09-26T20:40:16.465Z,6.10
2022-09-26T20:42:45.974Z,3.63
2022-09-26T20:45:19.051Z,4.03
2022-09-26T20:47:47.260Z,2.10
2022-09-26T20:50:19.345Z,4.18
2022-09-26T20:52:46.001Z,4.60
2022-09-26T20:55:17.099Z,3.95
2022-09-26T20:57:44.174Z,5.47
2022-09-26T21:00:15.753Z,8.00
2022-09-26T21:02:42.356Z,6.07
2022-09-26T21:05:25.726Z,5.85
2022-09-26T21:07:53.477Z,3.63
2022-09-26T21:10:22.716Z,4.47
2022-09-26T21:12:49.170Z,4.10
2022-09-26T21:15:15.811Z,4.57
2022-09-26T21:17:44.872Z,3.08
2022-09-26T21:20:22.635Z,2.00
2022-09-26T21:22:49.286Z,2.88
2022-09-26T21:25:18.890Z,3.97
2022-09-26T21:27:53.030Z,3.50
2022-09-26T21:30:21.345Z,3.45
2022-09-26T21:32:53.431Z,1.98
2022-09-26T21:35:23.096Z,1.63
2022-09-26T21:37:52.262Z,3.20
2022-09-26T21:40:21.079Z,1.33
2022-09-26T21:42:50.734Z,2.25
2022-09-26T21:45:22.377Z,1.92
2022-09-26T21:47:51.864Z,3.45
2022-09-26T21:50:18.199Z,1.67
2022-09-26T21:52:50.902Z,2.63
2022-09-26T21:55:23.970Z,4.18
2022-09-26T21:57:53.953Z,2.70
2022-09-26T22:00:20.458Z,2.92
2022-09-26T22:02:46.884Z,1.08
2022-09-26T22:05:13.248Z,3.30
2022-09-26T22:07:39.927Z,2.42
2022-09-26T22:10:06.929Z,2.25
2022-09-26T22:12:33.377Z,2.22
2022-09-26T22:14:59.805Z,1.20
2022-09-26T22:17:26.208Z,1.50
2022-09-26T22:19:53.198Z,1.60
2022-09-26T22:22:20.079Z,2.95
2022-09-26T22:24:46.552Z,2.15
2022-09-26T22:27:13.122Z,1.77
2022-09-26T22:29:39.517Z,4.18
2022-09-26T22:32:05.858Z,2.03
2022-09-26T22:34:32.326Z,1.23
2022-09-26T22:36:58.829Z,1.40
2022-09-26T22:39:25.144Z,1.92
2022-09-26T22:41:51.524Z,3.17
2022-09-26T22:44:17.831Z,2.55
2022-09-26T22:46:44.379Z,1.20
2022-09-26T22:49:10.771Z,1.42
2022-09-26T22:51:37.437Z,0.80
2022-09-26T22:54:03.951Z,1.67
2022-09-26T22:56:30.278Z,1.20
2022-09-26T22:58:56.777Z,1.10
2022-09-26T23:01:26.376Z,1.85
2022-09-26T23:03:53.357Z,1.73
2022-09-26T23:06:21.781Z,1.55
2022-09-26T23:08:48.706Z,4.40
2022-09-26T23:11:15.574Z,1.40
2022-09-26T23:13:42.229Z,1.02
2022-09-26T23:16:14.836Z,2.58
2022-09-26T23:18:41.869Z,1.02
2022-09-26T23:21:11.016Z,3.08
2022-09-26T23:23:38.440Z,1.30
2022-09-26T23:26:07.086Z,2.15
2022-09-26T23:28:34.493Z,1.65
2022-09-26T23:31:05.773Z,1.35
2022-09-26T23:33:32.235Z,1.13
2022-09-26T23:35:59.718Z,1.13
2022-09-26T23:38:26.998Z,2.17
2022-09-26T23:40:53.924Z,0.88
2022-09-26T23:43:20.625Z,0.95
2022-09-26T23:45:47.557Z,0.63
2022-09-26T23:48:14.263Z,1.00
2022-09-26T23:50:42.331Z,1.33
2022-09-26T23:53:08.688Z,1.75
2022-09-26T23:55:35.023Z,0.80
2022-09-26T23:58:01.967Z,1.35
